Share

Odessa, Ukraine

8:25 AM EEST on April 25, 2014 (GMT +0300)
Odesa (UKOO) Elev 138 ft | 46.43 °N, 30.77 °E | Change Station

Current weather conditions updated 25 minutes ago

Clear
Clear
57 °F
Feels Like 57 °F
N
11
Wind Variable Wind from East
Sunrise 5:53 AM
Sunset 7:57 PM
Moon Waning Crescent

Today is forecast to be Cooler than yesterday.

Pressure 30.04 in
Visibility -9999.0 miles
Clouds
Dew Point 48 °F
Humidity 72%
Rainfall 0.00 in
Snow Depth Not available.
UV Not available.
Pollen Not available.
Air Quality Not available.
Flu Activity Not available.
METAR UKOO 250500Z 09005MPS 050V150 CAVOK 14/09 Q1017 16090060 NOSIG

More Conditions Fewer Conditions

Pressure 30.04 in
Visibility -9999.0 miles
Clouds
Dew Point 48 °F
Humidity 72%
Rainfall 0.00 in
Snow Depth Not available.
UV Not available.
Pollen Not available.
Air Quality Not available.
Flu Activity Not available.
METAR UKOO 250500Z 09005MPS 050V150 CAVOK 14/09 Q1017 16090060 NOSIG

More Conditions Fewer Conditions

10-Day Weather Forecast

Almanac

Astronomy

Apr. 25, 2014 Rise Set
Actual Time 5:53 AM EEST 7:57 PM EEST
Civil Twilight 5:20 AM EEST 8:30 PM EEST
Nautical Twilight 4:40 AM EEST 9:10 PM EEST
Astronomical Twilight 3:55 AM EEST 9:55 PM EEST
Moon 3:44 AM EEST 3:43 PM EEST
Length of Visible Light 15h 09m
Length of Day
14h 04m
Tomorrow will be 3m 1s longer.
Waning Crescent, 19% of the Moon is Illuminated
Today
Waning Crescent
Apr 29
New
May 6
First Quarter
May 14
Full
May 21
Last Quarter

Yesterday's Extremes

Country Highs Country Lows

Community

  • Deer in evening light
    Deer in evening light
  • Critter
    Critter
  • Jone Runs Falls
    Jone Runs Falls
  • Easter in Shenandoah National Park
    Easter in Shenandoah National Park
  • Sunset at Apalachicola Bay, Florida
    Sunset at Apalachicola Bay, Florida

WunderPhotos

Upload Photos

1,704,861 photos uploaded!

WunderBlogs® & News

Nearby

Snow Depth

Not available.

Coastal Water Temperatures

Place Temperature
No Stations Reporting

Earthquake Activity

City Distance Mag. Time & Date
No recent earthquake activity has been reported nearby.
Minimum magnitude displayed is 2.5.

Nearby Weather Stations

Station Location Temp. Dew Point Humidity Wind Precip. Elev Updated Type
Odessa centrum, Одесса 60.6 °F 49 °F 65% ESE  at  9.6 mph 0.00 in / hr 174 ft 8:25 AM EEST Normal

Show More Stations Show Fewer Stations

What do you think?

We're not finished. Please let us know what you like, what you don't like, and what you are still missing.